Time;durP1;ratioP1;P1;durP2;ratioP2;P2;SDS_P1;SDS_P2;PMS_P1;PMS_P2;Temp;Humidity;BMP_temperature;BMP_pressure;BME280_temperature;BME280_humidity;BME280_pressure;Samples;Min_cycle;Max_cycle;Signal;HPM_P1;HPM_P2
2020/12/21 00:01:19;;;;;;;4.82;2.78;;;8.00;81.60;;;;;;4991935;28;20022;-84
2020/12/21 00:03:45;;;;;;;3.40;2.30;;;8.00;81.60;;;;;;5006554;28;20073;-82
2020/12/21 00:06:13;;;;;;;4.50;2.70;;;8.10;81.70;;;;;;4991496;28;20029;-85
2020/12/21 00:08:39;;;;;;;4.35;2.47;;;8.10;81.70;;;;;;4991720;28;20034;-83
2020/12/21 00:11:05;;;;;;;4.53;2.60;;;8.10;81.70;;;;;;4991979;28;20026;-84
2020/12/21 00:13:31;;;;;;;4.78;2.92;;;8.10;81.70;;;;;;4991991;28;20343;-82
2020/12/21 00:15:58;;;;;;;4.32;2.40;;;8.10;81.70;;;;;;4989801;28;20029;-81
2020/12/21 00:18:25;;;;;;;5.57;2.75;;;8.10;81.70;;;;;;5006353;28;20042;-82
2020/12/21 00:20:51;;;;;;;3.72;2.20;;;8.20;81.90;;;;;;4989645;28;20026;-81
2020/12/21 00:23:17;;;;;;;10.27;3.20;;;8.20;81.90;;;;;;4989839;28;20026;-82
2020/12/21 00:25:43;;;;;;;4.60;2.75;;;8.20;81.90;;;;;;4987797;28;20037;-80
2020/12/21 00:28:09;;;;;;;6.60;2.47;;;8.20;81.90;;;;;;5002274;28;20022;-81
2020/12/21 00:30:36;;;;;;;6.78;2.60;;;8.20;81.90;;;;;;5021722;28;20048;-81
2020/12/21 00:33:02;;;;;;;3.00;2.20;;;8.30;82.10;;;;;;5005485;28;20678;-80
2020/12/21 00:35:27;;;;;;;4.43;2.33;;;8.30;82.10;;;;;;5005409;28;20026;-79
2020/12/21 00:37:54;;;;;;;13.65;3.13;;;8.30;82.10;;;;;;5005527;28;20513;-80
2020/12/21 00:40:20;;;;;;;5.15;2.38;;;8.30;82.10;;;;;;5007105;28;20104;-80
2020/12/21 00:42:46;;;;;;;3.63;2.28;;;8.30;82.10;;;;;;5005575;28;20049;-80
2020/12/21 00:45:12;;;;;;;5.65;2.05;;;8.30;82.20;;;;;;5006008;28;20430;-79
2020/12/21 00:47:38;;;;;;;2.50;1.92;;;8.40;82.40;;;;;;5006969;28;20060;-78
2020/12/21 00:50:05;;;;;;;4.07;2.17;;;8.40;82.40;;;;;;5005454;28;20034;-77
2020/12/21 00:52:32;;;;;;;3.88;2.10;;;8.40;82.40;;;;;;5005714;28;20125;-78
2020/12/21 00:54:58;;;;;;;15.93;2.45;;;8.40;82.30;;;;;;5004646;28;20447;-78
2020/12/21 00:57:24;;;;;;;3.03;2.25;;;8.40;82.40;;;;;;5006297;28;20485;-77
2020/12/21 00:59:49;;;;;;;6.30;2.72;;;8.50;82.50;;;;;;5005364;28;20042;-78
2020/12/21 01:02:16;;;;;;;2.22;1.77;;;8.40;82.30;;;;;;5005091;28;20041;-78
2020/12/21 01:04:41;;;;;;;4.55;2.30;;;8.40;82.30;;;;;;5004997;28;20049;-78
2020/12/21 01:07:07;;;;;;;4.68;2.58;;;8.50;82.50;;;;;;5006511;28;20041;-79
2020/12/21 01:09:33;;;;;;;3.63;2.10;;;8.50;82.50;;;;;;4985465;28;20034;-79
2020/12/21 01:11:59;;;;;;;3.95;2.05;;;8.50;82.40;;;;;;5002120;28;20133;-79
2020/12/21 01:14:25;;;;;;;3.20;1.90;;;8.50;82.40;;;;;;4987471;28;20110;-80
2020/12/21 01:16:53;;;;;;;3.65;2.22;;;8.50;82.40;;;;;;5004224;28;20042;-80
2020/12/21 01:19:18;;;;;;;3.65;2.25;;;8.50;82.40;;;;;;4999738;28;20095;-80
2020/12/21 01:21:44;;;;;;;3.53;2.08;;;8.50;82.40;;;;;;5009916;28;20030;-79
2020/12/21 01:24:10;;;;;;;2.55;2.08;;;8.60;83.10;;;;;;5010196;28;20371;-80
2020/12/21 01:26:36;;;;;;;5.55;1.92;;;8.60;82.60;;;;;;4993677;28;20065;-80
2020/12/21 01:29:03;;;;;;;2.53;1.73;;;8.50;82.40;;;;;;5009962;28;20805;-80
2020/12/21 01:31:28;;;;;;;2.65;1.85;;;8.60;82.60;;;;;;5010031;28;20026;-80
2020/12/21 01:33:54;;;;;;;2.55;1.85;;;8.60;82.60;;;;;;4992968;28;20059;-81
2020/12/21 01:36:21;;;;;;;4.78;2.67;;;8.60;82.60;;;;;;4993106;28;20657;-80
2020/12/21 01:38:47;;;;;;;2.47;1.77;;;8.60;82.60;;;;;;4989973;28;20232;-81
2020/12/21 01:41:13;;;;;;;5.22;2.20;;;8.60;82.60;;;;;;4989816;28;20031;-80
2020/12/21 01:43:39;;;;;;;2.38;1.88;;;8.60;82.60;;;;;;5006097;28;20181;-79
2020/12/21 01:46:12;;;;;;;3.47;1.85;;;8.70;82.80;;;;;;4990553;28;20034;-79
2020/12/21 01:48:39;;;;;;;3.10;2.00;;;8.60;82.70;;;;;;5008600;28;20388;-78
2020/12/21 01:51:06;;;;;;;2.78;1.88;;;8.70;83.30;;;;;;5010766;28;20036;-79
2020/12/21 01:53:37;;;;;;;3.22;1.50;;;8.70;82.80;;;;;;5009909;28;20147;-79
2020/12/21 01:56:05;;;;;;;4.68;1.80;;;8.70;82.80;;;;;;5008843;28;20038;-79
2020/12/21 01:58:32;;;;;;;5.03;2.03;;;8.70;82.80;;;;;;4992120;28;20056;-78
2020/12/21 02:01:00;;;;;;;5.07;1.95;;;8.70;82.80;;;;;;5007454;28;20113;-79
2020/12/21 02:03:27;;;;;;;4.00;1.85;;;8.70;82.70;;;;;;5010148;28;20053;-79
2020/12/21 02:05:53;;;;;;;2.40;1.63;;;8.70;82.80;;;;;;4991605;28;20037;-79
2020/12/21 02:08:18;;;;;;;2.10;1.48;;;8.70;82.80;;;;;;4992287;28;20117;-80
2020/12/21 02:10:44;;;;;;;2.28;1.75;;;8.70;82.70;;;;;;5008369;28;20545;-79
2020/12/21 02:13:10;;;;;;;2.40;1.67;;;8.70;82.70;;;;;;4991885;28;20588;-79
2020/12/21 02:15:36;;;;;;;2.20;1.63;;;8.70;82.70;;;;;;5008407;28;20041;-79
2020/12/21 02:18:02;;;;;;;2.88;2.13;;;8.70;82.70;;;;;;5008479;28;20025;-79
2020/12/21 02:20:31;;;;;;;4.07;2.40;;;8.70;82.70;;;;;;4991898;28;20030;-80
2020/12/21 02:22:58;;;;;;;3.75;1.90;;;8.80;83.40;;;;;;4992229;28;20055;-79
2020/12/21 02:25:24;;;;;;;3.85;2.17;;;8.80;82.80;;;;;;5008454;28;20092;-79
2020/12/21 02:27:50;;;;;;;1.80;1.70;;;8.80;82.80;;;;;;5007291;28;20026;-79
2020/12/21 02:30:16;;;;;;;4.13;2.08;;;8.80;82.80;;;;;;5001472;28;20064;-80
2020/12/21 02:32:42;;;;;;;5.13;2.42;;;8.70;82.70;;;;;;4998249;28;20038;-78
2020/12/21 02:35:09;;;;;;;3.17;1.63;;;8.80;82.80;;;;;;5004873;28;20042;-80
2020/12/21 02:37:35;;;;;;;3.47;1.98;;;8.80;82.80;;;;;;5005121;28;20061;-81
2020/12/21 02:40:03;;;;;;;4.47;2.17;;;8.80;82.80;;;;;;5008360;28;20084;-81
2020/12/21 02:42:29;;;;;;;2.63;1.60;;;8.80;82.80;;;;;;5009843;28;20029;-80
2020/12/21 02:44:55;;;;;;;4.40;1.40;;;8.80;82.80;;;;;;4992612;28;20095;-81
2020/12/21 02:47:21;;;;;;;2.65;1.70;;;8.80;82.80;;;;;;5010803;28;20169;-80
2020/12/21 02:49:47;;;;;;;4.25;1.73;;;8.80;82.80;;;;;;4995253;28;20421;-81
2020/12/21 02:52:14;;;;;;;3.03;1.65;;;8.80;82.80;;;;;;5011584;28;20060;-81
2020/12/21 02:54:45;;;;;;;3.83;1.77;;;8.80;82.80;;;;;;5012013;28;20132;-83
2020/12/21 02:57:12;;;;;;;4.38;2.10;;;8.80;82.80;;;;;;5012635;28;20036;-83
2020/12/21 02:59:38;;;;;;;2.05;1.60;;;8.80;82.80;;;;;;5012953;28;20045;-83
2020/12/21 03:02:04;;;;;;;2.58;1.52;;;8.80;82.80;;;;;;5011464;28;20037;-81
2020/12/21 03:04:30;;;;;;;3.58;1.88;;;8.90;83.00;;;;;;4994592;28;20109;-83
2020/12/21 03:06:56;;;;;;;3.17;1.98;;;8.90;82.90;;;;;;5011515;28;20589;-84
2020/12/21 03:09:23;;;;;;;4.35;1.95;;;8.90;82.90;;;;;;5012055;28;20141;-84
2020/12/21 03:11:50;;;;;;;2.55;1.55;;;8.80;82.70;;;;;;4995582;28;20053;-83
2020/12/21 03:14:15;;;;;;;3.42;1.90;;;8.90;82.90;;;;;;5011078;28;20557;-82
2020/12/21 03:16:41;;;;;;;4.75;2.58;;;8.90;82.90;;;;;;5011256;28;20257;-82
2020/12/21 03:19:07;;;;;;;2.17;1.60;;;8.90;82.90;;;;;;4994407;28;20041;-82
2020/12/21 03:21:33;;;;;;;5.63;2.00;;;8.90;82.90;;;;;;5010894;28;20188;-81
2020/12/21 03:23:59;;;;;;;3.45;2.00;;;8.90;82.90;;;;;;5010799;28;20036;-81
2020/12/21 03:26:26;;;;;;;3.40;1.65;;;8.90;82.80;;;;;;4995293;28;20029;-84
2020/12/21 03:28:52;;;;;;;4.07;2.17;;;8.90;82.80;;;;;;4995503;28;20072;-84
2020/12/21 03:31:19;;;;;;;2.35;1.67;;;8.90;82.80;;;;;;4996359;28;20080;-85
2020/12/21 03:33:45;;;;;;;2.40;1.67;;;8.90;82.80;;;;;;5012065;28;20033;-86
2020/12/21 03:36:11;;;;;;;3.05;1.75;;;8.90;82.80;;;;;;5012214;28;20072;-86
2020/12/21 03:38:38;;;;;;;4.35;1.95;;;8.90;82.80;;;;;;4994779;28;20100;-83
2020/12/21 03:41:04;;;;;;;3.50;1.75;;;8.90;82.80;;;;;;4995856;28;20544;-84
2020/12/21 03:43:30;;;;;;;4.28;2.08;;;8.90;82.80;;;;;;4996140;28;20037;-84
2020/12/21 03:45:56;;;;;;;3.83;1.85;;;8.90;82.80;;;;;;4996138;28;20033;-84
2020/12/21 03:48:22;;;;;;;3.92;2.15;;;8.90;82.80;;;;;;4996301;28;20528;-85
2020/12/21 03:50:48;;;;;;;3.22;2.13;;;8.90;82.80;;;;;;4996205;28;20030;-85
2020/12/21 03:53:15;;;;;;;5.07;2.00;;;8.90;82.80;;;;;;5013905;28;20033;-85
2020/12/21 03:55:42;;;;;;;1.75;1.45;;;8.90;82.80;;;;;;5012238;28;20351;-85
2020/12/21 03:58:08;;;;;;;4.55;1.70;;;9.00;82.90;;;;;;5012406;28;20666;-86
2020/12/21 04:00:35;;;;;;;2.28;1.63;;;9.00;83.00;;;;;;5012630;28;20029;-86
2020/12/21 04:03:01;;;;;;;3.03;1.75;;;9.00;82.90;;;;;;4994634;28;20049;-82
2020/12/21 04:05:27;;;;;;;4.57;1.85;;;9.00;82.90;;;;;;5010709;28;20026;-81
2020/12/21 04:07:53;;;;;;;1.55;1.42;;;9.00;82.90;;;;;;5012016;28;20029;-81
2020/12/21 04:10:19;;;;;;;4.90;2.28;;;9.00;82.90;;;;;;4993858;28;20146;-80
2020/12/21 04:12:46;;;;;;;1.92;1.67;;;9.00;82.90;;;;;;5009091;28;20397;-79
2020/12/21 04:15:13;;;;;;;1.92;1.73;;;9.00;82.90;;;;;;5009631;28;20472;-79
2020/12/21 04:17:39;;;;;;;3.20;1.95;;;9.00;82.90;;;;;;5009880;28;20029;-79
2020/12/21 04:20:05;;;;;;;2.25;1.60;;;9.10;83.10;;;;;;5010814;28;20083;-78
2020/12/21 04:22:31;;;;;;;3.17;1.50;;;9.10;83.00;;;;;;5009030;28;20026;-78
2020/12/21 04:24:57;;;;;;;2.15;1.60;;;9.10;83.00;;;;;;4992550;28;20499;-78
2020/12/21 04:27:22;;;;;;;2.65;1.67;;;9.10;83.00;;;;;;5010634;28;20025;-79
2020/12/21 04:29:48;;;;;;;3.78;1.67;;;9.10;83.00;;;;;;5009351;28;20033;-78
2020/12/21 04:32:14;;;;;;;1.88;1.50;;;9.10;83.00;;;;;;5010132;28;20078;-78
2020/12/21 04:34:40;;;;;;;2.85;1.80;;;9.10;83.00;;;;;;5008435;28;20512;-78
2020/12/21 04:37:06;;;;;;;2.40;1.67;;;9.20;83.20;;;;;;5009948;28;20064;-77
2020/12/21 04:39:32;;;;;;;1.63;1.35;;;9.20;83.20;;;;;;5009917;28;20077;-79
2020/12/21 04:41:59;;;;;;;2.05;1.63;;;9.20;83.20;;;;;;5008621;28;20032;-79
2020/12/21 04:44:26;;;;;;;6.43;1.80;;;9.20;83.20;;;;;;5008927;28;20040;-79
2020/12/21 04:46:53;;;;;;;3.70;1.63;;;9.20;83.20;;;;;;4991845;28;20493;-79
2020/12/21 04:49:19;;;;;;;1.92;1.55;;;9.20;83.20;;;;;;5008753;28;20580;-79
2020/12/21 04:51:47;;;;;;;2.78;1.52;;;9.20;83.20;;;;;;5008793;28;20141;-78
2020/12/21 04:54:14;;;;;;;2.47;1.40;;;9.20;83.20;;;;;;5010064;28;20030;-79
2020/12/21 04:56:43;;;;;;;4.88;1.63;;;9.20;83.10;;;;;;5008447;28;20144;-79
2020/12/21 04:59:10;;;;;;;1.80;1.50;;;9.20;83.10;;;;;;5008394;28;20041;-80
2020/12/21 05:01:37;;;;;;;3.50;1.58;;;9.30;83.30;;;;;;4991814;28;20084;-79
2020/12/21 05:04:03;;;;;;;4.13;1.80;;;9.30;83.20;;;;;;5008574;28;20030;-79
2020/12/21 05:06:29;;;;;;;1.50;1.38;;;9.30;83.20;;;;;;5009693;28;20079;-80
2020/12/21 05:09:09;;;;;;;1.33;1.23;;;9.30;83.20;;;;;;5008252;28;20038;-79
2020/12/21 05:11:38;;;;;;;1.73;1.50;;;9.30;83.20;;;;;;4992376;28;20267;-79
2020/12/21 05:14:09;;;;;;;1.30;1.20;;;9.30;83.20;;;;;;5008263;28;20121;-78
2020/12/21 05:16:35;;;;;;;1.40;1.30;;;9.30;83.20;;;;;;5009731;28;20466;-78
2020/12/21 05:19:01;;;;;;;5.68;1.42;;;9.30;83.20;;;;;;5009228;28;20110;-78
2020/12/21 05:21:28;;;;;;;4.50;1.73;;;9.30;83.20;;;;;;5008400;28;20034;-79
2020/12/21 05:23:59;;;;;;;3.05;1.55;;;9.30;83.20;;;;;;5008021;28;20030;-79
2020/12/21 05:26:30;;;;;;;3.28;1.50;;;9.40;83.30;;;;;;5008303;28;20026;-79
2020/12/21 05:28:56;;;;;;;2.88;1.38;;;9.40;83.30;;;;;;5008380;28;20076;-79
2020/12/21 05:31:22;;;;;;;1.58;1.30;;;9.40;83.30;;;;;;5008423;28;20030;-80
2020/12/21 05:33:48;;;;;;;2.30;1.50;;;9.40;83.30;;;;;;5007961;28;20034;-83
2020/12/21 05:36:16;;;;;;;4.60;1.17;;;9.40;83.30;;;;;;5008199;28;20059;-82
2020/12/21 05:38:44;;;;;;;1.73;1.48;;;9.40;83.30;;;;;;5008269;28;20044;-79
2020/12/21 05:41:18;;;;;;;2.50;1.38;;;9.40;83.30;;;;;;5009083;28;20053;-77
2020/12/21 05:43:45;;;;;;;;;;;9.40;83.30;;;;;;5009703;28;20103;-78
2020/12/21 05:46:15;;;;;;;8.05;1.20;;;9.40;83.30;;;;;;5009449;28;20009;-78
2020/12/21 05:48:55;;;;;;;1.27;1.08;;;9.50;83.30;;;;;;4992020;28;20078;-78
2020/12/21 05:51:32;;;;;;;2.67;1.63;;;9.50;83.30;;;;;;4986550;28;20034;-79
2020/12/21 05:54:00;;;;;;;1.55;1.45;;;9.50;83.30;;;;;;4984840;28;20340;-79
2020/12/21 05:56:28;;;;;;;2.47;1.35;;;9.50;83.30;;;;;;5001299;28;20037;-79
2020/12/21 05:58:55;;;;;;;2.45;1.20;;;9.50;83.30;;;;;;5012407;28;20050;-79
2020/12/21 06:01:22;;;;;;;3.22;1.35;;;9.50;83.30;;;;;;5003956;28;20621;-79
2020/12/21 06:03:49;;;;;;;1.95;1.60;;;9.50;83.30;;;;;;5006699;28;20499;-78
2020/12/21 06:06:20;;;;;;;3.75;1.42;;;9.50;83.30;;;;;;5007275;28;20032;-78
2020/12/21 06:08:48;;;;;;;1.88;1.42;;;9.50;83.30;;;;;;5009133;28;20041;-79
2020/12/21 06:11:17;;;;;;;1.25;1.15;;;9.60;83.50;;;;;;5007680;28;20060;-82
2020/12/21 06:13:59;;;;;;;1.63;1.35;;;9.50;83.30;;;;;;5008386;28;20038;-80
2020/12/21 06:16:28;;;;;;;1.45;1.20;;;9.60;83.50;;;;;;5008687;28;20057;-78
2020/12/21 06:19:05;;;;;;;1.42;1.33;;;9.60;83.40;;;;;;4991215;28;20517;-79
2020/12/21 06:21:34;;;;;;;1.77;1.30;;;9.60;83.40;;;;;;5006258;28;20030;-79
2020/12/21 06:24:00;;;;;;;1.08;1.05;;;9.60;83.40;;;;;;5004736;28;20035;-80
2020/12/21 06:26:39;;;;;;;1.35;1.25;;;9.60;83.40;;;;;;5002433;28;20426;-80
2020/12/21 06:29:14;;;;;;;1.27;1.10;;;9.60;83.40;;;;;;5017087;28;20066;-80
2020/12/21 06:31:44;;;;;;;3.70;1.23;;;9.60;83.40;;;;;;5004902;28;20084;-81
2020/12/21 06:34:13;;;;;;;1.60;1.08;;;9.70;83.50;;;;;;5005317;28;20118;-80
2020/12/21 06:36:39;;;;;;;1.30;1.20;;;9.70;83.50;;;;;;4989285;28;20458;-80
2020/12/21 06:39:06;;;;;;;1.30;1.20;;;9.70;83.50;;;;;;5001902;28;20088;-81
2020/12/21 06:41:32;;;;;;;1.40;1.15;;;9.70;83.50;;;;;;5008995;28;20137;-79
2020/12/21 06:44:04;;;;;;;1.10;1.10;;;9.70;83.70;;;;;;5009485;28;20064;-84
2020/12/21 06:46:33;;;;;;;1.20;1.10;;;9.70;83.50;;;;;;5011466;28;20434;-82
2020/12/21 06:49:15;;;;;;;1.55;1.45;;;9.70;83.50;;;;;;5006330;28;20076;-82
2020/12/21 06:51:46;;;;;;;1.42;1.33;;;9.70;83.50;;;;;;4988683;28;20034;-80
2020/12/21 06:54:13;;;;;;;0.90;0.90;;;9.70;83.50;;;;;;5004106;28;20046;-78
2020/12/21 06:56:40;;;;;;;2.05;1.17;;;9.80;83.60;;;;;;4992814;28;20057;-78
2020/12/21 06:59:12;;;;;;;0.95;0.95;;;9.80;83.60;;;;;;5004214;28;20046;-78
2020/12/21 07:01:39;;;;;;;2.63;0.95;;;9.80;83.60;;;;;;5008912;28;20084;-79
2020/12/21 07:04:15;;;;;;;1.40;1.10;;;9.80;83.60;;;;;;5001062;28;20030;-78
2020/12/21 07:06:42;;;;;;;1.98;1.27;;;9.80;83.60;;;;;;5004822;28;20050;-78
2020/12/21 07:09:12;;;;;;;1.20;1.10;;;9.80;83.50;;;;;;5001442;28;20038;-76
2020/12/21 07:11:40;;;;;;;1.30;1.20;;;9.90;83.70;;;;;;4990519;28;20089;-78
2020/12/21 07:14:11;;;;;;;1.58;1.20;;;9.90;83.70;;;;;;5018543;28;20026;-78
2020/12/21 07:16:37;;;;;;;2.35;1.10;;;9.90;83.70;;;;;;5007947;28;20064;-78
2020/12/21 07:19:03;;;;;;;1.77;1.33;;;9.90;83.70;;;;;;5002513;28;20470;-77
2020/12/21 07:21:30;;;;;;;2.03;1.20;;;10.00;84.00;;;;;;5003969;28;20322;-77
2020/12/21 07:23:58;;;;;;;2.75;1.27;;;10.00;84.00;;;;;;4996554;28;20076;-77
2020/12/21 07:26:24;;;;;;;1.83;1.05;;;10.00;84.10;;;;;;5002934;28;20188;-77
2020/12/21 07:28:50;;;;;;;1.48;1.30;;;10.10;84.20;;;;;;5017275;28;20025;-77
2020/12/21 07:31:18;;;;;;;1.60;1.33;;;10.10;84.30;;;;;;4999435;28;20041;-78
2020/12/21 07:34:11;;;;;;;1.30;1.20;;;10.10;84.30;;;;;;4996706;28;20021;-76
2020/12/21 07:36:39;;;;;;;1.10;1.10;;;10.10;84.30;;;;;;4978912;28;20239;-76
2020/12/21 07:39:14;;;;;;;1.20;1.10;;;10.20;84.50;;;;;;5002755;28;20042;-76
2020/12/21 07:41:48;;;;;;;1.63;1.30;;;10.20;84.40;;;;;;4994578;28;20026;-76
2020/12/21 07:44:24;;;;;;;1.20;1.10;;;10.20;84.50;;;;;;4997512;28;20149;-77
2020/12/21 07:47:07;;;;;;;1.20;1.00;;;10.20;84.40;;;;;;5019973;28;20418;-79
2020/12/21 07:49:37;;;;;;;1.20;1.10;;;10.20;84.40;;;;;;5005336;28;20108;-79
2020/12/21 07:52:06;;;;;;;1.13;1.02;;;10.30;84.60;;;;;;5006102;28;20389;-79
2020/12/21 07:54:43;;;;;;;1.00;0.90;;;10.30;84.60;;;;;;5005909;28;20073;-78
2020/12/21 07:57:13;;;;;;;1.20;1.10;;;10.30;84.60;;;;;;5006265;28;20029;-77
2020/12/21 07:59:40;;;;;;;0.90;0.90;;;10.30;84.60;;;;;;5020877;28;20060;-77
2020/12/21 08:02:07;;;;;;;1.23;1.13;;;10.30;84.60;;;;;;5005767;28;20121;-77
2020/12/21 08:04:34;;;;;;;1.10;1.00;;;10.30;84.60;;;;;;5005578;28;20034;-77
2020/12/21 08:07:11;;;;;;;1.50;1.10;;;10.30;84.60;;;;;;4989238;28;20026;-77
2020/12/21 08:09:39;;;;;;;1.42;1.20;;;10.40;84.80;;;;;;5005815;28;20041;-77
2020/12/21 08:12:08;;;;;;;1.23;1.13;;;10.40;84.80;;;;;;5007331;28;20474;-79
2020/12/21 08:14:35;;;;;;;2.65;1.30;;;10.40;84.80;;;;;;5006118;28;20037;-76
2020/12/21 08:17:13;;;;;;;1.33;1.23;;;10.40;84.80;;;;;;5006429;28;20493;-82
2020/12/21 08:19:50;;;;;;;1.42;1.15;;;10.40;84.80;;;;;;5005414;28;20041;-79
2020/12/21 08:22:28;;;;;;;1.73;1.25;;;10.40;84.80;;;;;;5000489;28;20037;-77
2020/12/21 08:25:10;;;;;;;2.33;1.40;;;10.50;85.00;;;;;;5005044;28;20049;-80
2020/12/21 08:27:50;;;;;;;1.45;1.27;;;10.50;85.00;;;;;;5005827;28;20105;-79
2020/12/21 08:30:21;;;;;;;1.50;1.40;;;10.50;84.90;;;;;;5007287;28;20037;-79
2020/12/21 08:32:48;;;;;;;3.08;1.33;;;10.60;85.10;;;;;;4988482;28;20026;-79
2020/12/21 08:35:23;;;;;;;1.33;1.23;;;10.60;85.10;;;;;;4989952;28;20030;-80
2020/12/21 08:37:49;;;;;;;1.30;1.20;;;10.60;85.10;;;;;;5006027;28;20520;-78
2020/12/21 08:40:16;;;;;;;1.30;1.20;;;10.70;85.30;;;;;;5005245;28;20033;-78
2020/12/21 08:42:43;;;;;;;2.88;1.40;;;10.70;85.20;;;;;;5006271;28;20026;-78
2020/12/21 08:45:10;;;;;;;1.33;1.23;;;10.60;85.00;;;;;;5005083;28;20397;-77
2020/12/21 08:47:36;;;;;;;1.38;1.23;;;10.70;85.10;;;;;;5021451;28;20435;-77
2020/12/21 08:50:04;;;;;;;1.48;1.00;;;10.80;85.30;;;;;;5005228;28;20048;-77
2020/12/21 08:52:30;;;;;;;5.22;1.75;;;10.80;85.30;;;;;;5004981;28;20580;-77
2020/12/21 08:54:56;;;;;;;1.48;1.15;;;10.80;85.30;;;;;;5004984;28;20030;-79
2020/12/21 08:57:22;;;;;;;1.52;1.20;;;10.80;85.30;;;;;;5007365;28;20113;-77
2020/12/21 08:59:48;;;;;;;1.83;1.30;;;10.90;85.50;;;;;;5005754;28;20037;-78
2020/12/21 09:02:14;;;;;;;1.42;1.33;;;10.90;85.40;;;;;;5004970;28;20042;-76
2020/12/21 09:04:40;;;;;;;1.90;1.27;;;10.90;85.40;;;;;;5006761;28;20053;-81
2020/12/21 09:07:06;;;;;;;1.23;1.13;;;10.90;85.90;;;;;;5004025;28;20030;-76
2020/12/21 09:09:32;;;;;;;1.60;1.50;;;11.00;85.60;;;;;;4987999;28;20042;-79
2020/12/21 09:11:58;;;;;;;1.35;1.25;;;11.00;85.60;;;;;;4988516;28;20037;-77
2020/12/21 09:14:24;;;;;;;2.17;1.30;;;11.00;85.50;;;;;;4988085;28;20044;-81
2020/12/21 09:16:53;;;;;;;1.95;1.60;;;11.10;85.70;;;;;;5004024;28;20125;-78
2020/12/21 09:19:20;;;;;;;1.30;1.20;;;11.10;85.70;;;;;;4988601;28;20049;-78
2020/12/21 09:21:46;;;;;;;1.65;1.55;;;11.10;85.60;;;;;;4988573;28;20028;-78
2020/12/21 09:24:12;;;;;;;1.75;1.35;;;11.10;85.60;;;;;;4988033;28;20535;-77
2020/12/21 09:26:38;;;;;;;1.88;1.23;;;11.20;85.80;;;;;;4988997;28;20029;-78
2020/12/21 09:29:04;;;;;;;1.35;1.25;;;11.20;85.70;;;;;;5004414;28;20404;-79
2020/12/21 09:31:30;;;;;;;1.17;1.17;;;11.20;85.70;;;;;;5004970;28;20026;-75
2020/12/21 09:33:56;;;;;;;1.60;1.42;;;11.30;86.10;;;;;;5006434;28;20537;-76
2020/12/21 09:36:22;;;;;;;1.35;1.23;;;11.30;85.80;;;;;;5006435;28;20405;-76
2020/12/21 09:38:49;;;;;;;1.20;1.10;;;11.30;85.80;;;;;;5009585;28;20061;-76
2020/12/21 09:41:18;;;;;;;1.52;1.23;;;11.40;85.90;;;;;;4992111;28;20034;-76
2020/12/21 09:43:46;;;;;;;1.70;1.38;;;11.30;85.70;;;;;;4987083;28;20065;-76
2020/12/21 09:46:19;;;;;;;1.17;1.08;;;11.40;85.90;;;;;;5005466;28;20081;-78
2020/12/21 09:48:46;;;;;;;1.20;1.10;;;11.40;85.80;;;;;;5013925;28;20370;-77
2020/12/21 09:51:12;;;;;;;2.10;1.23;;;11.50;86.00;;;;;;4992754;28;20112;-78
2020/12/21 09:53:39;;;;;;;2.08;1.52;;;11.50;85.90;;;;;;4988497;28;20033;-82
2020/12/21 09:56:05;;;;;;;1.92;1.48;;;11.50;86.00;;;;;;4999365;28;20032;-80
2020/12/21 09:58:31;;;;;;;1.30;1.20;;;11.60;86.20;;;;;;5000157;28;20678;-81
2020/12/21 10:00:57;;;;;;;2.35;1.35;;;11.70;86.50;;;;;;4995517;28;20496;-78
2020/12/21 10:03:23;;;;;;;1.33;1.20;;;11.70;86.50;;;;;;4989659;28;20026;-77
2020/12/21 10:05:49;;;;;;;1.48;1.23;;;11.70;86.60;;;;;;4988241;28;20359;-76
2020/12/21 10:08:15;;;;;;;1.55;1.45;;;11.80;86.70;;;;;;5007934;28;20034;-80
2020/12/21 10:10:41;;;;;;;1.98;1.20;;;11.90;86.90;;;;;;4997807;28;20029;-79
2020/12/21 10:13:07;;;;;;;1.52;1.30;;;11.90;86.80;;;;;;4999819;28;20042;-80
2020/12/21 10:15:33;;;;;;;1.10;1.08;;;12.00;87.00;;;;;;4998936;28;20033;-80
2020/12/21 10:17:59;;;;;;;1.27;1.17;;;12.00;87.00;;;;;;5008118;28;20030;-77
2020/12/21 10:20:25;;;;;;;1.23;1.10;;;12.00;86.90;;;;;;5018168;28;20030;-76
2020/12/21 10:22:51;;;;;;;1.50;1.23;;;12.10;87.00;;;;;;5005687;28;20030;-76
2020/12/21 10:25:17;;;;;;;1.30;1.20;;;12.10;87.00;;;;;;5008887;28;20128;-77
2020/12/21 10:27:43;;;;;;;1.48;1.20;;;12.20;87.10;;;;;;5009561;28;20508;-77
2020/12/21 10:30:08;;;;;;;2.35;1.27;;;12.30;87.20;;;;;;5009423;28;20034;-76
2020/12/21 10:32:35;;;;;;;1.45;1.20;;;12.30;87.10;;;;;;5008966;28;20030;-78
2020/12/21 10:35:00;;;;;;;5.25;1.25;;;12.30;87.00;;;;;;5009083;28;20052;-76
2020/12/21 10:37:26;;;;;;;1.23;1.13;;;12.40;87.10;;;;;;5009179;28;20038;-78
2020/12/21 10:39:52;;;;;;;1.45;1.33;;;12.40;87.10;;;;;;5007104;28;20173;-78
2020/12/21 10:42:20;;;;;;;1.58;1.27;;;12.40;87.00;;;;;;5008705;28;20033;-77
2020/12/21 10:44:46;;;;;;;2.28;1.30;;;12.40;87.00;;;;;;5008014;28;20038;-77
2020/12/21 10:47:12;;;;;;;1.20;1.10;;;12.40;86.90;;;;;;5008772;28;20509;-77
2020/12/21 10:49:37;;;;;;;1.60;1.20;;;12.50;87.10;;;;;;5007090;28;20546;-78
2020/12/21 10:52:03;;;;;;;2.67;0.80;;;12.50;87.10;;;;;;5008188;28;20038;-78
2020/12/21 10:54:29;;;;;;;1.23;1.13;;;12.50;87.10;;;;;;5006937;28;20406;-77
2020/12/21 10:56:55;;;;;;;1.30;1.20;;;12.50;87.10;;;;;;5006584;28;20118;-77
2020/12/21 10:59:21;;;;;;;1.02;1.00;;;12.50;87.60;;;;;;5007249;28;20042;-78
2020/12/21 11:01:48;;;;;;;1.13;1.10;;;12.50;87.10;;;;;;5008059;28;20497;-77
2020/12/21 11:04:14;;;;;;;0.98;0.95;;;12.50;87.10;;;;;;5007520;28;20026;-78
2020/12/21 11:06:40;;;;;;;1.00;1.00;;;12.50;87.10;;;;;;5007514;28;20029;-77
2020/12/21 11:09:07;;;;;;;1.98;1.30;;;12.50;87.10;;;;;;5006760;28;20030;-78
2020/12/21 11:11:34;;;;;;;1.30;1.17;;;12.50;87.10;;;;;;5008099;28;20030;-76
2020/12/21 11:14:00;;;;;;;3.83;1.05;;;12.50;87.10;;;;;;5008632;28;20033;-76
2020/12/21 11:16:26;;;;;;;1.20;1.10;;;12.50;87.10;;;;;;4990672;28;20056;-77
2020/12/21 11:18:52;;;;;;;2.42;1.27;;;12.60;87.20;;;;;;5006266;28;20064;-76
2020/12/21 11:21:18;;;;;;;0.98;0.95;;;12.60;87.20;;;;;;4990198;28;20061;-76
2020/12/21 11:23:44;;;;;;;1.60;1.10;;;12.60;87.20;;;;;;5006030;28;20062;-77
2020/12/21 11:26:13;;;;;;;1.20;1.10;;;12.60;87.20;;;;;;5022296;28;20400;-77
2020/12/21 11:28:39;;;;;;;1.48;1.00;;;12.70;87.30;;;;;;5007447;28;20058;-77
2020/12/21 11:31:05;;;;;;;1.95;1.25;;;12.70;87.20;;;;;;5008175;28;20054;-74
2020/12/21 11:33:31;;;;;;;1.23;1.10;;;12.70;87.20;;;;;;5007226;28;20347;-77
2020/12/21 11:35:57;;;;;;;1.73;1.20;;;12.70;87.30;;;;;;5007750;28;20077;-76
2020/12/21 11:38:23;;;;;;;0.88;0.88;;;12.70;87.30;;;;;;5022414;28;20041;-76
2020/12/21 11:40:50;;;;;;;1.33;1.20;;;12.80;87.50;;;;;;5005646;28;20069;-78
2020/12/21 11:43:17;;;;;;;1.13;1.02;;;12.80;87.50;;;;;;5007014;28;20030;-81
2020/12/21 11:45:44;;;;;;;1.15;1.13;;;12.90;87.70;;;;;;5006346;28;20038;-79
2020/12/21 11:48:10;;;;;;;1.30;1.20;;;12.90;87.60;;;;;;5007363;28;20064;-76
2020/12/21 11:50:36;;;;;;;1.58;1.13;;;12.90;87.60;;;;;;4989142;28;20393;-77
2020/12/21 11:53:03;;;;;;;0.95;0.93;;;12.90;87.60;;;;;;5007037;28;20021;-77
2020/12/21 11:55:29;;;;;;;1.30;1.20;;;12.90;87.50;;;;;;5007132;28;20091;-77
2020/12/21 11:57:55;;;;;;;1.40;1.30;;;13.00;87.70;;;;;;5006074;28;20481;-77
2020/12/21 12:00:20;;;;;;;5.55;1.65;;;13.00;87.70;;;;;;5005803;28;20042;-80
2020/12/21 12:02:46;;;;;;;39.50;26.63;;;13.00;87.70;;;;;;5005838;28;20034;-77
2020/12/21 12:05:13;;;;;;;37.08;32.10;;;13.00;87.80;;;;;;5005363;28;20033;-76
2020/12/21 12:07:40;;;;;;;44.88;34.95;;;13.00;87.90;;;;;;5005013;28;20037;-76
2020/12/21 12:10:06;;;;;;;35.50;31.63;;;13.10;88.70;;;;;;5020377;28;20573;-76
2020/12/21 12:12:33;;;;;;;32.83;28.45;;;13.20;88.40;;;;;;5007004;28;20292;-75
2020/12/21 12:14:59;;;;;;;33.35;29.83;;;13.20;88.50;;;;;;5005191;28;20073;-76
2020/12/21 12:17:25;;;;;;;39.85;33.95;;;13.20;88.50;;;;;;5004763;28;20080;-77
2020/12/21 12:19:51;;;;;;;34.63;30.02;;;13.20;88.60;;;;;;5006825;28;20042;-76
2020/12/21 12:22:17;;;;;;;34.53;29.95;;;13.30;88.80;;;;;;5005594;28;20442;-79
2020/12/21 12:24:43;;;;;;;35.97;29.70;;;13.30;88.90;;;;;;5005463;28;20038;-80
2020/12/21 12:27:09;;;;;;;32.40;26.00;;;13.30;89.00;;;;;;5005534;28;20037;-80
2020/12/21 12:29:35;;;;;;;29.92;26.23;;;13.30;89.10;;;;;;5005332;28;20026;-80
2020/12/21 12:32:02;;;;;;;28.92;23.75;;;13.30;89.10;;;;;;5007110;28;20373;-82
2020/12/21 12:34:28;;;;;;;28.63;23.65;;;13.30;89.20;;;;;;5005526;28;20029;-81
2020/12/21 12:36:54;;;;;;;26.25;23.52;;;13.30;89.20;;;;;;4987505;28;20069;-81
2020/12/21 12:39:20;;;;;;;21.83;19.08;;;13.30;89.30;;;;;;5005236;28;20033;-82
2020/12/21 12:41:46;;;;;;;21.63;19.42;;;13.30;89.30;;;;;;5006804;28;20512;-81
2020/12/21 12:44:12;;;;;;;23.73;20.83;;;13.30;89.40;;;;;;5006178;28;20029;-81
2020/12/21 12:46:39;;;;;;;22.38;19.08;;;13.30;89.40;;;;;;4989648;28;20524;-81
2020/12/21 12:49:07;;;;;;;20.40;17.40;;;13.40;89.60;;;;;;5007515;28;20107;-82
2020/12/21 12:51:36;;;;;;;22.00;17.38;;;13.40;89.60;;;;;;4989274;28;20133;-79